KHNB

Huntingburg Airport

Huntingburg, Indiana, USA
KHNB 141729Z 1418/1518 06010KT 4SM RA BR SCT009 OVC018 FM142000 06010KT 4SM -SHRA BR OVC022 FM150400 05011KT 2SM -SHRA BR OVC007
Issued Valid From Valid To
Dec-14 @ 17:29 UTC
(4 hours ago)
Dec-14 @ 18:00 UTC
(4 hours ago)
Dec-15 @ 18:00 UTC
(in 20 hours)
Expired Click to View Dec-14 @ 18:00 to Dec-14 @ 20:00
KHNB 141729Z 1418/1518 06010KT 4SM RA BR SCT009 OVC018
Wind Visibility Clouds Conditions
60° at 10 knots 4 miles
  • Scattered at 900' AGL
  • Overcast at 1,800' AGL
  • Rain
  • Mist
From Dec-14 @ 20:00 to Dec-15 @ 04:00
FM142000 06010KT 4SM -SHRA BR OVC022
Wind Visibility Clouds Conditions
60° at 10 knots 4 miles
  • Overcast at 2,200' AGL
  • Light Rain
  • Mist
From Dec-15 @ 04:00 to Dec-15 @ 18:00
FM150400 05011KT 2SM -SHRA BR OVC007
Wind Visibility Clouds Conditions
50° at 11 knots 2 miles
  • Overcast at 700' AGL
  • Light Rain
  • Mist
KHNB 141729Z 1418/1518 06010KT 4SM RA BR SCT009 OVC018 FM142000 06010KT 4SM -SHRA BR OVC022 FM150400 05011KT 2SM -SHRA BR OVC007
Issued Dec-14 @ 17:29 UTC
(4 hours ago)
Valid From Dec-14 @ 18:00 UTC
(4 hours ago)
Valid To Dec-15 @ 18:00 UTC
(in 20 hours)
Dec-14 @ 18:00 - Dec-14 @ 20:00
Wind Visibility
60° at 10 knots 4 miles
Clouds
  • Scattered at 900' AGL
  • Overcast at 1,800' AGL
Conditions
  • Rain
  • Mist
From Dec-14 @ 20:00 - Dec-15 @ 04:00
Wind Visibility
60° at 10 knots 4 miles
Clouds
  • Overcast at 2,200' AGL
Conditions
  • Light Rain
  • Mist
From Dec-15 @ 04:00 - Dec-15 @ 18:00
Wind Visibility
50° at 11 knots 2 miles
Clouds
  • Overcast at 700' AGL
Conditions
  • Light Rain
  • Mist